sensor_id;sensor_type;location;lat;lon;timestamp;P1;durP1;ratioP1;P2;durP2;ratioP2
38312;SDS011;24114;52.260;6.714;2024-03-06T00:01:06;43.92;;;31.90;;
38312;SDS011;24114;52.260;6.714;2024-03-06T00:03:34;47.83;;;32.65;;
38312;SDS011;24114;52.260;6.714;2024-03-06T00:06:02;45.33;;;32.13;;
38312;SDS011;24114;52.260;6.714;2024-03-06T00:08:30;45.10;;;32.00;;
38312;SDS011;24114;52.260;6.714;2024-03-06T00:10:59;46.40;;;32.75;;
38312;SDS011;24114;52.260;6.714;2024-03-06T00:13:26;48.00;;;33.28;;
38312;SDS011;24114;52.260;6.714;2024-03-06T00:15:54;48.13;;;34.20;;
38312;SDS011;24114;52.260;6.714;2024-03-06T00:18:22;48.63;;;34.58;;
38312;SDS011;24114;52.260;6.714;2024-03-06T00:20:50;50.20;;;35.35;;
38312;SDS011;24114;52.260;6.714;2024-03-06T00:23:18;51.13;;;36.47;;
38312;SDS011;24114;52.260;6.714;2024-03-06T00:25:46;49.40;;;35.65;;
38312;SDS011;24114;52.260;6.714;2024-03-06T00:28:15;51.10;;;36.55;;
38312;SDS011;24114;52.260;6.714;2024-03-06T00:30:43;50.80;;;37.08;;
38312;SDS011;24114;52.260;6.714;2024-03-06T00:33:11;52.08;;;37.58;;
38312;SDS011;24114;52.260;6.714;2024-03-06T00:35:39;49.25;;;35.78;;
38312;SDS011;24114;52.260;6.714;2024-03-06T00:38:06;53.15;;;36.95;;
38312;SDS011;24114;52.260;6.714;2024-03-06T00:40:34;54.67;;;37.30;;
38312;SDS011;24114;52.260;6.714;2024-03-06T00:43:03;51.28;;;36.15;;
38312;SDS011;24114;52.260;6.714;2024-03-06T00:45:32;51.60;;;37.17;;
38312;SDS011;24114;52.260;6.714;2024-03-06T00:48:00;53.28;;;37.58;;
38312;SDS011;24114;52.260;6.714;2024-03-06T00:50:28;51.22;;;36.97;;
38312;SDS011;24114;52.260;6.714;2024-03-06T00:52:55;54.67;;;37.70;;
38312;SDS011;24114;52.260;6.714;2024-03-06T00:55:23;57.20;;;39.30;;
38312;SDS011;24114;52.260;6.714;2024-03-06T00:57:51;54.60;;;38.40;;
38312;SDS011;24114;52.260;6.714;2024-03-06T01:00:19;52.28;;;38.33;;
38312;SDS011;24114;52.260;6.714;2024-03-06T01:02:50;52.85;;;37.70;;
38312;SDS011;24114;52.260;6.714;2024-03-06T01:05:18;52.63;;;37.30;;
38312;SDS011;24114;52.260;6.714;2024-03-06T01:07:45;53.17;;;36.95;;
38312;SDS011;24114;52.260;6.714;2024-03-06T01:10:13;52.40;;;37.85;;
38312;SDS011;24114;52.260;6.714;2024-03-06T01:12:41;53.33;;;37.75;;
38312;SDS011;24114;52.260;6.714;2024-03-06T01:15:11;50.85;;;36.63;;
38312;SDS011;24114;52.260;6.714;2024-03-06T01:17:39;52.53;;;37.13;;
38312;SDS011;24114;52.260;6.714;2024-03-06T01:20:09;56.38;;;38.35;;
38312;SDS011;24114;52.260;6.714;2024-03-06T01:22:38;56.03;;;37.72;;
38312;SDS011;24114;52.260;6.714;2024-03-06T01:25:06;58.88;;;38.58;;
38312;SDS011;24114;52.260;6.714;2024-03-06T01:27:34;59.25;;;39.10;;
38312;SDS011;24114;52.260;6.714;2024-03-06T01:30:02;56.90;;;39.22;;
38312;SDS011;24114;52.260;6.714;2024-03-06T01:32:30;59.92;;;41.28;;
38312;SDS011;24114;52.260;6.714;2024-03-06T01:34:59;61.70;;;40.20;;
38312;SDS011;24114;52.260;6.714;2024-03-06T01:37:28;57.55;;;39.42;;
38312;SDS011;24114;52.260;6.714;2024-03-06T01:39:56;59.13;;;41.28;;
38312;SDS011;24114;52.260;6.714;2024-03-06T01:42:24;61.03;;;40.83;;
38312;SDS011;24114;52.260;6.714;2024-03-06T01:44:51;58.45;;;39.60;;
38312;SDS011;24114;52.260;6.714;2024-03-06T01:47:20;60.30;;;39.80;;
38312;SDS011;24114;52.260;6.714;2024-03-06T01:49:47;59.50;;;39.88;;
38312;SDS011;24114;52.260;6.714;2024-03-06T01:52:15;59.53;;;39.08;;
38312;SDS011;24114;52.260;6.714;2024-03-06T01:54:46;58.33;;;40.13;;
38312;SDS011;24114;52.260;6.714;2024-03-06T01:57:15;58.90;;;38.67;;
38312;SDS011;24114;52.260;6.714;2024-03-06T01:59:44;59.53;;;39.22;;
38312;SDS011;24114;52.260;6.714;2024-03-06T02:02:12;60.57;;;39.70;;
38312;SDS011;24114;52.260;6.714;2024-03-06T02:04:40;60.90;;;40.35;;
38312;SDS011;24114;52.260;6.714;2024-03-06T02:07:09;59.93;;;39.83;;
38312;SDS011;24114;52.260;6.714;2024-03-06T02:09:37;60.95;;;41.22;;
38312;SDS011;24114;52.260;6.714;2024-03-06T02:12:07;66.47;;;42.72;;
38312;SDS011;24114;52.260;6.714;2024-03-06T02:14:35;62.20;;;39.95;;
38312;SDS011;24114;52.260;6.714;2024-03-06T02:17:03;65.43;;;42.15;;
38312;SDS011;24114;52.260;6.714;2024-03-06T02:19:37;66.45;;;42.78;;
38312;SDS011;24114;52.260;6.714;2024-03-06T02:22:08;67.13;;;41.75;;
38312;SDS011;24114;52.260;6.714;2024-03-06T02:24:36;63.90;;;41.30;;
38312;SDS011;24114;52.260;6.714;2024-03-06T02:27:05;66.03;;;42.38;;
38312;SDS011;24114;52.260;6.714;2024-03-06T02:29:32;66.00;;;42.05;;
38312;SDS011;24114;52.260;6.714;2024-03-06T02:32:00;64.40;;;42.17;;
38312;SDS011;24114;52.260;6.714;2024-03-06T02:34:29;64.68;;;41.15;;
38312;SDS011;24114;52.260;6.714;2024-03-06T02:36:57;69.40;;;42.08;;
38312;SDS011;24114;52.260;6.714;2024-03-06T02:39:26;64.78;;;41.50;;
38312;SDS011;24114;52.260;6.714;2024-03-06T02:41:54;65.82;;;41.85;;
38312;SDS011;24114;52.260;6.714;2024-03-06T02:44:22;62.83;;;42.13;;
38312;SDS011;24114;52.260;6.714;2024-03-06T02:46:50;65.60;;;42.30;;
38312;SDS011;24114;52.260;6.714;2024-03-06T02:49:18;63.80;;;41.97;;
38312;SDS011;24114;52.260;6.714;2024-03-06T02:51:46;65.70;;;42.08;;
38312;SDS011;24114;52.260;6.714;2024-03-06T02:54:14;63.90;;;41.35;;
38312;SDS011;24114;52.260;6.714;2024-03-06T02:56:43;63.90;;;42.05;;
38312;SDS011;24114;52.260;6.714;2024-03-06T02:59:11;69.45;;;42.55;;
38312;SDS011;24114;52.260;6.714;2024-03-06T03:01:40;67.00;;;42.78;;
38312;SDS011;24114;52.260;6.714;2024-03-06T03:04:09;69.05;;;43.00;;
38312;SDS011;24114;52.260;6.714;2024-03-06T03:06:37;67.75;;;42.88;;
38312;SDS011;24114;52.260;6.714;2024-03-06T03:09:05;70.30;;;43.13;;
38312;SDS011;24114;52.260;6.714;2024-03-06T03:11:33;65.50;;;42.22;;
38312;SDS011;24114;52.260;6.714;2024-03-06T03:14:03;68.27;;;43.03;;
38312;SDS011;24114;52.260;6.714;2024-03-06T03:16:31;74.32;;;43.65;;
38312;SDS011;24114;52.260;6.714;2024-03-06T03:19:00;72.57;;;43.53;;
38312;SDS011;24114;52.260;6.714;2024-03-06T03:21:28;69.90;;;43.78;;
38312;SDS011;24114;52.260;6.714;2024-03-06T03:23:55;72.13;;;44.63;;
38312;SDS011;24114;52.260;6.714;2024-03-06T03:26:24;74.78;;;44.70;;
38312;SDS011;24114;52.260;6.714;2024-03-06T03:28:52;72.72;;;45.33;;
38312;SDS011;24114;52.260;6.714;2024-03-06T03:31:23;79.38;;;46.50;;
38312;SDS011;24114;52.260;6.714;2024-03-06T03:33:51;71.90;;;43.72;;
38312;SDS011;24114;52.260;6.714;2024-03-06T03:36:19;77.45;;;45.53;;
38312;SDS011;24114;52.260;6.714;2024-03-06T03:38:46;74.65;;;45.10;;
38312;SDS011;24114;52.260;6.714;2024-03-06T03:41:14;82.32;;;46.38;;
38312;SDS011;24114;52.260;6.714;2024-03-06T03:43:43;77.50;;;45.33;;
38312;SDS011;24114;52.260;6.714;2024-03-06T03:46:10;81.15;;;46.58;;
38312;SDS011;24114;52.260;6.714;2024-03-06T03:48:41;78.68;;;45.10;;
38312;SDS011;24114;52.260;6.714;2024-03-06T03:51:09;80.37;;;46.47;;
38312;SDS011;24114;52.260;6.714;2024-03-06T03:53:38;82.20;;;47.90;;
38312;SDS011;24114;52.260;6.714;2024-03-06T03:56:06;83.38;;;47.63;;
38312;SDS011;24114;52.260;6.714;2024-03-06T03:58:34;78.47;;;46.28;;
38312;SDS011;24114;52.260;6.714;2024-03-06T04:01:02;79.53;;;46.13;;
38312;SDS011;24114;52.260;6.714;2024-03-06T04:03:29;86.63;;;48.53;;
38312;SDS011;24114;52.260;6.714;2024-03-06T04:05:59;82.78;;;47.63;;
38312;SDS011;24114;52.260;6.714;2024-03-06T04:08:26;78.72;;;45.25;;
38312;SDS011;24114;52.260;6.714;2024-03-06T04:10:54;84.72;;;47.22;;
38312;SDS011;24114;52.260;6.714;2024-03-06T04:13:22;82.47;;;46.20;;
38312;SDS011;24114;52.260;6.714;2024-03-06T04:15:50;84.47;;;46.55;;
38312;SDS011;24114;52.260;6.714;2024-03-06T04:18:18;85.63;;;47.13;;
38312;SDS011;24114;52.260;6.714;2024-03-06T04:20:46;83.90;;;46.47;;
38312;SDS011;24114;52.260;6.714;2024-03-06T04:23:15;82.07;;;47.08;;
38312;SDS011;24114;52.260;6.714;2024-03-06T04:25:43;81.55;;;47.92;;
38312;SDS011;24114;52.260;6.714;2024-03-06T04:28:11;79.30;;;46.28;;
38312;SDS011;24114;52.260;6.714;2024-03-06T04:30:39;81.22;;;46.40;;
38312;SDS011;24114;52.260;6.714;2024-03-06T04:33:07;81.10;;;48.33;;
38312;SDS011;24114;52.260;6.714;2024-03-06T04:35:35;83.63;;;47.83;;
38312;SDS011;24114;52.260;6.714;2024-03-06T04:38:03;83.27;;;47.07;;
38312;SDS011;24114;52.260;6.714;2024-03-06T04:40:33;79.10;;;45.50;;
38312;SDS011;24114;52.260;6.714;2024-03-06T04:43:01;82.07;;;46.22;;
38312;SDS011;24114;52.260;6.714;2024-03-06T04:45:29;76.50;;;46.45;;
38312;SDS011;24114;52.260;6.714;2024-03-06T04:47:57;81.45;;;47.38;;
38312;SDS011;24114;52.260;6.714;2024-03-06T04:50:25;77.95;;;44.83;;
38312;SDS011;24114;52.260;6.714;2024-03-06T04:52:53;78.40;;;46.53;;
38312;SDS011;24114;52.260;6.714;2024-03-06T04:55:22;76.05;;;44.95;;
38312;SDS011;24114;52.260;6.714;2024-03-06T04:57:53;75.97;;;45.17;;
38312;SDS011;24114;52.260;6.714;2024-03-06T05:00:21;76.78;;;44.33;;
38312;SDS011;24114;52.260;6.714;2024-03-06T05:02:49;77.28;;;45.13;;
38312;SDS011;24114;52.260;6.714;2024-03-06T05:05:34;75.80;;;46.17;;
38312;SDS011;24114;52.260;6.714;2024-03-06T05:08:20;75.13;;;44.95;;
38312;SDS011;24114;52.260;6.714;2024-03-06T05:11:05;75.13;;;45.45;;
38312;SDS011;24114;52.260;6.714;2024-03-06T05:13:53;74.88;;;45.95;;
38312;SDS011;24114;52.260;6.714;2024-03-06T05:16:38;73.35;;;43.88;;
38312;SDS011;24114;52.260;6.714;2024-03-06T05:19:24;74.85;;;45.92;;
38312;SDS011;24114;52.260;6.714;2024-03-06T05:22:13;74.00;;;44.85;;
38312;SDS011;24114;52.260;6.714;2024-03-06T05:24:59;71.63;;;42.88;;
38312;SDS011;24114;52.260;6.714;2024-03-06T05:27:44;72.88;;;43.72;;
38312;SDS011;24114;52.260;6.714;2024-03-06T05:30:31;78.78;;;45.03;;
38312;SDS011;24114;52.260;6.714;2024-03-06T05:33:16;72.53;;;43.22;;
38312;SDS011;24114;52.260;6.714;2024-03-06T05:36:01;73.53;;;44.17;;
38312;SDS011;24114;52.260;6.714;2024-03-06T05:38:46;72.38;;;44.42;;
38312;SDS011;24114;52.260;6.714;2024-03-06T05:41:33;73.97;;;44.53;;
38312;SDS011;24114;52.260;6.714;2024-03-06T05:44:18;74.33;;;44.80;;
38312;SDS011;24114;52.260;6.714;2024-03-06T05:47:05;78.00;;;45.28;;
38312;SDS011;24114;52.260;6.714;2024-03-06T05:49:51;75.15;;;44.40;;
38312;SDS011;24114;52.260;6.714;2024-03-06T05:52:36;72.30;;;43.90;;
38312;SDS011;24114;52.260;6.714;2024-03-06T05:55:21;74.47;;;44.35;;
38312;SDS011;24114;52.260;6.714;2024-03-06T05:58:07;78.30;;;44.38;;
38312;SDS011;24114;52.260;6.714;2024-03-06T06:00:38;79.45;;;44.60;;
38312;SDS011;24114;52.260;6.714;2024-03-06T06:03:08;79.07;;;45.73;;
38312;SDS011;24114;52.260;6.714;2024-03-06T06:05:38;81.35;;;44.83;;
38312;SDS011;24114;52.260;6.714;2024-03-06T06:08:07;76.57;;;45.10;;
38312;SDS011;24114;52.260;6.714;2024-03-06T06:10:34;77.82;;;44.35;;
38312;SDS011;24114;52.260;6.714;2024-03-06T06:13:02;83.35;;;45.45;;
38312;SDS011;24114;52.260;6.714;2024-03-06T06:15:31;75.87;;;44.97;;
38312;SDS011;24114;52.260;6.714;2024-03-06T06:17:59;78.97;;;45.20;;
38312;SDS011;24114;52.260;6.714;2024-03-06T06:20:29;78.70;;;44.87;;
38312;SDS011;24114;52.260;6.714;2024-03-06T06:22:57;78.25;;;43.38;;
38312;SDS011;24114;52.260;6.714;2024-03-06T06:25:24;79.88;;;45.45;;
38312;SDS011;24114;52.260;6.714;2024-03-06T06:27:52;72.65;;;43.08;;
38312;SDS011;24114;52.260;6.714;2024-03-06T06:30:20;75.13;;;44.25;;
38312;SDS011;24114;52.260;6.714;2024-03-06T06:32:48;73.53;;;43.67;;
38312;SDS011;24114;52.260;6.714;2024-03-06T06:35:16;75.55;;;43.88;;
38312;SDS011;24114;52.260;6.714;2024-03-06T06:37:45;75.60;;;43.67;;
38312;SDS011;24114;52.260;6.714;2024-03-06T06:40:13;74.15;;;43.75;;
38312;SDS011;24114;52.260;6.714;2024-03-06T06:42:44;76.47;;;44.35;;
38312;SDS011;24114;52.260;6.714;2024-03-06T06:45:16;73.72;;;43.42;;
38312;SDS011;24114;52.260;6.714;2024-03-06T06:47:44;70.72;;;42.40;;
38312;SDS011;24114;52.260;6.714;2024-03-06T06:50:13;73.43;;;42.92;;
38312;SDS011;24114;52.260;6.714;2024-03-06T06:52:40;73.07;;;42.53;;
38312;SDS011;24114;52.260;6.714;2024-03-06T06:55:10;74.75;;;42.50;;
38312;SDS011;24114;52.260;6.714;2024-03-06T06:57:38;67.97;;;41.90;;
38312;SDS011;24114;52.260;6.714;2024-03-06T07:00:06;70.10;;;41.25;;
38312;SDS011;24114;52.260;6.714;2024-03-06T07:02:38;69.28;;;42.28;;
38312;SDS011;24114;52.260;6.714;2024-03-06T07:05:07;69.67;;;42.40;;
38312;SDS011;24114;52.260;6.714;2024-03-06T07:07:36;68.63;;;42.08;;
38312;SDS011;24114;52.260;6.714;2024-03-06T07:10:04;72.05;;;43.30;;
38312;SDS011;24114;52.260;6.714;2024-03-06T07:12:33;69.43;;;43.03;;
38312;SDS011;24114;52.260;6.714;2024-03-06T07:15:02;63.80;;;41.05;;
38312;SDS011;24114;52.260;6.714;2024-03-06T07:17:30;65.15;;;40.80;;
38312;SDS011;24114;52.260;6.714;2024-03-06T07:19:58;63.40;;;40.22;;
38312;SDS011;24114;52.260;6.714;2024-03-06T07:22:27;60.83;;;38.77;;
38312;SDS011;24114;52.260;6.714;2024-03-06T07:24:54;54.65;;;35.38;;
38312;SDS011;24114;52.260;6.714;2024-03-06T07:27:22;53.53;;;36.17;;
38312;SDS011;24114;52.260;6.714;2024-03-06T07:29:51;57.67;;;37.73;;
38312;SDS011;24114;52.260;6.714;2024-03-06T07:32:20;56.88;;;35.80;;
38312;SDS011;24114;52.260;6.714;2024-03-06T07:34:47;60.70;;;39.13;;
38312;SDS011;24114;52.260;6.714;2024-03-06T07:37:15;58.85;;;38.60;;
38312;SDS011;24114;52.260;6.714;2024-03-06T07:39:43;60.03;;;38.25;;
38312;SDS011;24114;52.260;6.714;2024-03-06T07:42:11;55.47;;;36.70;;
38312;SDS011;24114;52.260;6.714;2024-03-06T07:44:39;54.93;;;35.33;;
38312;SDS011;24114;52.260;6.714;2024-03-06T07:47:08;55.70;;;36.03;;
38312;SDS011;24114;52.260;6.714;2024-03-06T07:49:36;56.37;;;35.93;;
38312;SDS011;24114;52.260;6.714;2024-03-06T07:52:04;58.28;;;36.00;;
38312;SDS011;24114;52.260;6.714;2024-03-06T07:54:32;56.83;;;37.53;;
38312;SDS011;24114;52.260;6.714;2024-03-06T07:57:00;57.40;;;36.88;;
38312;SDS011;24114;52.260;6.714;2024-03-06T07:59:28;56.63;;;36.83;;
38312;SDS011;24114;52.260;6.714;2024-03-06T08:01:55;54.13;;;35.10;;
38312;SDS011;24114;52.260;6.714;2024-03-06T08:04:25;55.40;;;35.30;;
38312;SDS011;24114;52.260;6.714;2024-03-06T08:06:53;49.83;;;33.37;;
38312;SDS011;24114;52.260;6.714;2024-03-06T08:09:21;49.33;;;33.28;;
38312;SDS011;24114;52.260;6.714;2024-03-06T08:11:50;50.97;;;33.35;;
38312;SDS011;24114;52.260;6.714;2024-03-06T08:14:21;46.63;;;32.03;;
38312;SDS011;24114;52.260;6.714;2024-03-06T08:16:50;52.58;;;33.33;;
38312;SDS011;24114;52.260;6.714;2024-03-06T08:19:18;51.55;;;34.05;;
38312;SDS011;24114;52.260;6.714;2024-03-06T08:21:47;54.78;;;34.85;;
38312;SDS011;24114;52.260;6.714;2024-03-06T08:24:14;52.22;;;34.65;;
38312;SDS011;24114;52.260;6.714;2024-03-06T08:26:43;51.67;;;34.33;;
38312;SDS011;24114;52.260;6.714;2024-03-06T08:29:11;48.88;;;33.80;;
38312;SDS011;24114;52.260;6.714;2024-03-06T08:31:40;52.25;;;35.03;;
38312;SDS011;24114;52.260;6.714;2024-03-06T08:34:07;51.83;;;34.47;;
38312;SDS011;24114;52.260;6.714;2024-03-06T08:36:35;49.05;;;33.30;;
38312;SDS011;24114;52.260;6.714;2024-03-06T08:39:05;51.03;;;34.17;;
38312;SDS011;24114;52.260;6.714;2024-03-06T08:41:33;50.17;;;33.72;;
38312;SDS011;24114;52.260;6.714;2024-03-06T08:44:01;52.92;;;34.80;;
38312;SDS011;24114;52.260;6.714;2024-03-06T08:46:29;53.70;;;35.37;;
38312;SDS011;24114;52.260;6.714;2024-03-06T08:48:57;49.97;;;34.58;;
38312;SDS011;24114;52.260;6.714;2024-03-06T08:51:31;52.33;;;35.10;;
38312;SDS011;24114;52.260;6.714;2024-03-06T08:53:59;52.40;;;35.28;;
38312;SDS011;24114;52.260;6.714;2024-03-06T08:56:30;47.03;;;32.25;;
38312;SDS011;24114;52.260;6.714;2024-03-06T08:59:00;51.53;;;35.08;;
38312;SDS011;24114;52.260;6.714;2024-03-06T09:01:29;50.95;;;34.55;;
38312;SDS011;24114;52.260;6.714;2024-03-06T09:03:57;49.75;;;34.20;;
38312;SDS011;24114;52.260;6.714;2024-03-06T09:06:25;51.03;;;35.40;;
38312;SDS011;24114;52.260;6.714;2024-03-06T09:08:53;55.17;;;35.42;;
38312;SDS011;24114;52.260;6.714;2024-03-06T09:11:21;58.13;;;37.67;;
38312;SDS011;24114;52.260;6.714;2024-03-06T09:13:51;54.08;;;37.22;;
38312;SDS011;24114;52.260;6.714;2024-03-06T09:16:18;57.72;;;37.47;;
38312;SDS011;24114;52.260;6.714;2024-03-06T09:18:46;55.58;;;37.28;;
38312;SDS011;24114;52.260;6.714;2024-03-06T09:21:14;54.25;;;36.42;;
38312;SDS011;24114;52.260;6.714;2024-03-06T09:23:42;51.30;;;36.37;;
38312;SDS011;24114;52.260;6.714;2024-03-06T09:26:09;53.15;;;36.63;;
38312;SDS011;24114;52.260;6.714;2024-03-06T09:28:38;52.70;;;35.42;;
38312;SDS011;24114;52.260;6.714;2024-03-06T09:31:08;50.50;;;34.75;;
38312;SDS011;24114;52.260;6.714;2024-03-06T09:33:36;51.20;;;35.20;;
38312;SDS011;24114;52.260;6.714;2024-03-06T09:36:06;53.45;;;36.95;;
38312;SDS011;24114;52.260;6.714;2024-03-06T09:38:35;49.50;;;33.85;;
38312;SDS011;24114;52.260;6.714;2024-03-06T09:41:04;55.45;;;38.90;;
38312;SDS011;24114;52.260;6.714;2024-03-06T09:43:32;50.67;;;36.28;;
38312;SDS011;24114;52.260;6.714;2024-03-06T09:46:00;51.35;;;36.03;;
38312;SDS011;24114;52.260;6.714;2024-03-06T09:48:30;47.80;;;33.63;;
38312;SDS011;24114;52.260;6.714;2024-03-06T09:51:01;51.45;;;33.92;;
38312;SDS011;24114;52.260;6.714;2024-03-06T09:53:29;52.33;;;35.55;;
38312;SDS011;24114;52.260;6.714;2024-03-06T09:55:58;48.37;;;34.07;;
38312;SDS011;24114;52.260;6.714;2024-03-06T09:58:26;52.47;;;35.78;;
38312;SDS011;24114;52.260;6.714;2024-03-06T10:00:54;53.47;;;36.08;;
38312;SDS011;24114;52.260;6.714;2024-03-06T10:03:22;47.22;;;32.90;;
38312;SDS011;24114;52.260;6.714;2024-03-06T10:05:52;49.83;;;34.35;;
38312;SDS011;24114;52.260;6.714;2024-03-06T10:08:22;49.88;;;34.60;;
38312;SDS011;24114;52.260;6.714;2024-03-06T10:10:53;47.83;;;34.03;;
38312;SDS011;24114;52.260;6.714;2024-03-06T10:13:22;50.40;;;34.10;;
38312;SDS011;24114;52.260;6.714;2024-03-06T10:15:57;49.93;;;34.23;;
38312;SDS011;24114;52.260;6.714;2024-03-06T10:18:26;48.30;;;34.38;;
38312;SDS011;24114;52.260;6.714;2024-03-06T10:20:56;47.35;;;33.63;;
38312;SDS011;24114;52.260;6.714;2024-03-06T10:23:24;49.42;;;34.08;;
38312;SDS011;24114;52.260;6.714;2024-03-06T10:25:54;46.80;;;33.67;;
38312;SDS011;24114;52.260;6.714;2024-03-06T10:28:23;46.88;;;32.75;;
38312;SDS011;24114;52.260;6.714;2024-03-06T10:30:51;45.83;;;33.17;;
38312;SDS011;24114;52.260;6.714;2024-03-06T10:33:19;46.93;;;33.73;;
38312;SDS011;24114;52.260;6.714;2024-03-06T10:35:47;45.60;;;32.65;;
38312;SDS011;24114;52.260;6.714;2024-03-06T10:38:18;47.70;;;32.97;;
38312;SDS011;24114;52.260;6.714;2024-03-06T10:40:47;47.28;;;33.90;;
38312;SDS011;24114;52.260;6.714;2024-03-06T10:43:18;47.65;;;34.33;;
38312;SDS011;24114;52.260;6.714;2024-03-06T10:45:48;48.43;;;34.70;;
38312;SDS011;24114;52.260;6.714;2024-03-06T10:48:17;43.35;;;31.58;;
38312;SDS011;24114;52.260;6.714;2024-03-06T10:50:46;45.83;;;32.77;;
38312;SDS011;24114;52.260;6.714;2024-03-06T10:53:15;47.17;;;33.25;;
38312;SDS011;24114;52.260;6.714;2024-03-06T10:55:50;46.20;;;33.50;;
38312;SDS011;24114;52.260;6.714;2024-03-06T10:58:19;44.85;;;33.00;;
38312;SDS011;24114;52.260;6.714;2024-03-06T11:00:47;44.33;;;32.05;;
38312;SDS011;24114;52.260;6.714;2024-03-06T11:03:16;44.00;;;31.08;;
38312;SDS011;24114;52.260;6.714;2024-03-06T11:05:44;44.40;;;31.30;;
38312;SDS011;24114;52.260;6.714;2024-03-06T11:08:14;43.47;;;31.42;;
38312;SDS011;24114;52.260;6.714;2024-03-06T11:10:43;43.17;;;29.73;;
38312;SDS011;24114;52.260;6.714;2024-03-06T11:13:22;42.17;;;30.15;;
38312;SDS011;24114;52.260;6.714;2024-03-06T11:15:51;42.35;;;30.80;;
38312;SDS011;24114;52.260;6.714;2024-03-06T11:21:28;43.17;;;30.83;;
38312;SDS011;24114;52.260;6.714;2024-03-06T11:24:11;40.08;;;29.88;;
38312;SDS011;24114;52.260;6.714;2024-03-06T11:26:42;41.47;;;30.08;;
38312;SDS011;24114;52.260;6.714;2024-03-06T11:29:13;40.33;;;29.77;;
38312;SDS011;24114;52.260;6.714;2024-03-06T11:31:56;40.55;;;29.95;;
38312;SDS011;24114;52.260;6.714;2024-03-06T11:34:27;42.28;;;29.85;;
38312;SDS011;24114;52.260;6.714;2024-03-06T11:36:56;37.97;;;27.42;;
38312;SDS011;24114;52.260;6.714;2024-03-06T11:39:28;36.88;;;27.52;;
38312;SDS011;24114;52.260;6.714;2024-03-06T11:41:58;36.15;;;26.83;;
38312;SDS011;24114;52.260;6.714;2024-03-06T11:44:28;38.35;;;29.02;;
38312;SDS011;24114;52.260;6.714;2024-03-06T11:46:57;37.30;;;26.40;;
38312;SDS011;24114;52.260;6.714;2024-03-06T11:49:26;37.95;;;28.10;;
38312;SDS011;24114;52.260;6.714;2024-03-06T11:51:55;38.10;;;27.97;;
38312;SDS011;24114;52.260;6.714;2024-03-06T11:54:24;39.25;;;28.13;;
38312;SDS011;24114;52.260;6.714;2024-03-06T11:56:53;39.05;;;29.10;;
38312;SDS011;24114;52.260;6.714;2024-03-06T11:59:22;38.63;;;29.20;;
38312;SDS011;24114;52.260;6.714;2024-03-06T12:01:52;38.42;;;28.50;;
38312;SDS011;24114;52.260;6.714;2024-03-06T12:04:21;37.35;;;28.13;;
38312;SDS011;24114;52.260;6.714;2024-03-06T12:06:50;37.95;;;27.48;;
38312;SDS011;24114;52.260;6.714;2024-03-06T12:09:18;34.83;;;26.33;;
38312;SDS011;24114;52.260;6.714;2024-03-06T12:11:46;34.35;;;26.30;;
38312;SDS011;24114;52.260;6.714;2024-03-06T12:14:15;33.95;;;25.63;;
38312;SDS011;24114;52.260;6.714;2024-03-06T12:16:44;33.50;;;25.67;;
38312;SDS011;24114;52.260;6.714;2024-03-06T12:19:14;33.53;;;25.50;;
38312;SDS011;24114;52.260;6.714;2024-03-06T12:21:41;35.70;;;26.88;;
38312;SDS011;24114;52.260;6.714;2024-03-06T12:24:09;34.60;;;26.25;;
38312;SDS011;24114;52.260;6.714;2024-03-06T12:26:37;35.85;;;26.63;;
38312;SDS011;24114;52.260;6.714;2024-03-06T12:29:06;36.22;;;27.35;;
38312;SDS011;24114;52.260;6.714;2024-03-06T12:31:34;35.78;;;26.15;;
38312;SDS011;24114;52.260;6.714;2024-03-06T12:34:04;33.47;;;24.73;;
38312;SDS011;24114;52.260;6.714;2024-03-06T12:36:34;32.45;;;24.48;;
38312;SDS011;24114;52.260;6.714;2024-03-06T12:39:02;36.15;;;25.77;;
38312;SDS011;24114;52.260;6.714;2024-03-06T12:41:39;37.13;;;27.13;;
38312;SDS011;24114;52.260;6.714;2024-03-06T12:44:07;34.95;;;25.17;;
38312;SDS011;24114;52.260;6.714;2024-03-06T12:46:35;34.70;;;25.20;;
38312;SDS011;24114;52.260;6.714;2024-03-06T12:49:03;32.58;;;25.10;;
38312;SDS011;24114;52.260;6.714;2024-03-06T12:51:30;34.03;;;24.97;;
38312;SDS011;24114;52.260;6.714;2024-03-06T12:54:00;35.60;;;25.33;;
38312;SDS011;24114;52.260;6.714;2024-03-06T12:56:29;34.47;;;24.83;;
38312;SDS011;24114;52.260;6.714;2024-03-06T12:58:57;32.85;;;24.05;;
38312;SDS011;24114;52.260;6.714;2024-03-06T13:01:25;28.98;;;23.42;;
38312;SDS011;24114;52.260;6.714;2024-03-06T13:03:53;31.58;;;23.92;;
38312;SDS011;24114;52.260;6.714;2024-03-06T13:06:31;31.05;;;22.92;;
38312;SDS011;24114;52.260;6.714;2024-03-06T13:09:00;30.52;;;23.35;;
38312;SDS011;24114;52.260;6.714;2024-03-06T13:11:28;29.38;;;23.33;;
38312;SDS011;24114;52.260;6.714;2024-03-06T13:13:56;30.50;;;24.27;;
38312;SDS011;24114;52.260;6.714;2024-03-06T13:16:24;30.92;;;23.35;;
38312;SDS011;24114;52.260;6.714;2024-03-06T13:18:52;30.40;;;24.10;;
38312;SDS011;24114;52.260;6.714;2024-03-06T13:21:23;31.23;;;22.98;;
38312;SDS011;24114;52.260;6.714;2024-03-06T13:23:50;29.98;;;22.38;;
38312;SDS011;24114;52.260;6.714;2024-03-06T13:26:20;30.45;;;21.90;;
38312;SDS011;24114;52.260;6.714;2024-03-06T13:28:48;27.35;;;21.42;;
38312;SDS011;24114;52.260;6.714;2024-03-06T13:31:16;27.92;;;20.98;;
38312;SDS011;24114;52.260;6.714;2024-03-06T13:33:45;28.50;;;21.95;;
38312;SDS011;24114;52.260;6.714;2024-03-06T13:36:12;28.60;;;20.92;;
38312;SDS011;24114;52.260;6.714;2024-03-06T13:38:41;25.38;;;20.27;;
38312;SDS011;24114;52.260;6.714;2024-03-06T13:41:10;23.58;;;18.98;;
38312;SDS011;24114;52.260;6.714;2024-03-06T13:43:39;25.42;;;18.83;;
38312;SDS011;24114;52.260;6.714;2024-03-06T13:46:07;22.17;;;18.35;;
38312;SDS011;24114;52.260;6.714;2024-03-06T13:48:34;24.83;;;19.13;;
38312;SDS011;24114;52.260;6.714;2024-03-06T13:51:03;29.17;;;22.13;;
38312;SDS011;24114;52.260;6.714;2024-03-06T13:53:31;24.73;;;19.98;;
38312;SDS011;24114;52.260;6.714;2024-03-06T13:55:59;27.40;;;20.83;;
38312;SDS011;24114;52.260;6.714;2024-03-06T13:58:27;24.52;;;19.98;;
38312;SDS011;24114;52.260;6.714;2024-03-06T14:00:56;25.57;;;20.30;;
38312;SDS011;24114;52.260;6.714;2024-03-06T14:03:24;26.35;;;20.95;;
38312;SDS011;24114;52.260;6.714;2024-03-06T14:05:52;28.10;;;21.42;;
38312;SDS011;24114;52.260;6.714;2024-03-06T14:08:28;24.35;;;18.98;;
38312;SDS011;24114;52.260;6.714;2024-03-06T14:10:56;25.05;;;18.95;;
38312;SDS011;24114;52.260;6.714;2024-03-06T14:13:23;23.05;;;18.70;;
38312;SDS011;24114;52.260;6.714;2024-03-06T14:15:51;23.77;;;17.88;;
38312;SDS011;24114;52.260;6.714;2024-03-06T14:18:19;20.93;;;17.83;;
38312;SDS011;24114;52.260;6.714;2024-03-06T14:20:47;22.85;;;18.17;;
38312;SDS011;24114;52.260;6.714;2024-03-06T14:23:15;22.10;;;17.67;;
38312;SDS011;24114;52.260;6.714;2024-03-06T14:25:44;22.73;;;17.75;;
38312;SDS011;24114;52.260;6.714;2024-03-06T14:28:12;21.52;;;17.73;;
38312;SDS011;24114;52.260;6.714;2024-03-06T14:30:40;23.15;;;18.02;;
38312;SDS011;24114;52.260;6.714;2024-03-06T14:33:08;22.13;;;17.85;;
38312;SDS011;24114;52.260;6.714;2024-03-06T14:35:36;22.75;;;18.05;;
38312;SDS011;24114;52.260;6.714;2024-03-06T14:38:04;22.05;;;17.10;;